Aérodrome :
LOGIN :

S'inscrire | Disclaimer

   EN    FR    IT 

 










Légende :    VFR   VFR Marginal   IFR   IFR Intensif   IFR Très Intensif
Visi : 
Plafond : 
>= 8 km
>= 3000ft
5 à 8 km
1000 à 3000 ft
1500m à 5 km
500 à 1000 ft
800 à 1500m
200 à 500 ft
< 800m
< 200 ft
Symboles :   Orages  Brouillard  Fortes neiges  Fortes précipitations  Vent > 20 kt
SIGMETs :   Divers  Orages  Givrage  Turbulence  Onde Orograph.  Cendres Volcan.







- Altitude de l'aérodrome : 1989 ft
- Code IATA : KLV


LKKV - Karlovy Vary

DERNIER METAR :
  • 211530Z 14005KT 090V190 CAVOK 18/M01 Q1020

METARs EXPIRÉS :
  • 211500Z 14007KT 080V170 CAVOK 18/M03 Q1020
  • 211438Z VRB06KT CAVOK 18/M03 Q1020 RMK REG QNH 1018
  • 211430Z 13008KT CAVOK 19/M03 Q1020
  • 211400Z 11008KT CAVOK 18/M02 Q1020
  • 211330Z 11008KT 060V140 CAVOK 18/M03 Q1021
  • 211300Z 16004KT 120V190 CAVOK 18/M04 Q1021

TAF TAF LKKV
Valide du 21 à 12h jusqu'au 22 à 18h UTC


211100Z 2112/2218 04008KT CAVOK
TEMPO 2112/2204 14004KT
TEMPO 2209/2218 07014G26KT
Pas de NOTAMs connus pour ce terrain.



MET'MAP, la Météo Aéronautique d'un coup d'oeil ! - Copyright ORBIFLY Décembre 2007 - Disclaimer

ORBIFLY MET'MAP TEAM :

Programmation & Développement : Alexandra Zaïnal
Conception & Développement : Baudouin d'Aumeries
Co-Programmation & Développement : Marc-Olivier Méhu
Soutien technique & logistique : Manuel Goepfert

Contact : metmap@orbifly.com




SOURCES & CREDITS :

   NOAA